createdAt,value
2023-01-19T00:00:03.875Z,2.70
2023-01-19T00:02:30.817Z,2.70
2023-01-19T00:04:58.571Z,2.60
2023-01-19T00:07:26.007Z,2.70
2023-01-19T00:09:52.823Z,2.60
2023-01-19T00:12:19.950Z,2.70
2023-01-19T00:14:46.770Z,2.70
2023-01-19T00:17:15.326Z,2.60
2023-01-19T00:19:42.127Z,2.70
2023-01-19T00:22:09.000Z,2.70
2023-01-19T00:24:36.425Z,2.70
2023-01-19T00:27:04.085Z,2.80
2023-01-19T00:29:34.230Z,2.80
2023-01-19T00:32:01.784Z,2.90
2023-01-19T00:34:37.127Z,2.70
2023-01-19T00:37:04.394Z,3.00
2023-01-19T00:39:31.348Z,2.70
2023-01-19T00:42:16.853Z,2.70
2023-01-19T00:44:43.835Z,2.70
2023-01-19T00:47:10.667Z,2.70
2023-01-19T00:49:37.473Z,2.70
2023-01-19T00:52:04.564Z,2.60
2023-01-19T00:54:31.781Z,2.60
2023-01-19T00:56:58.620Z,2.60
2023-01-19T00:59:26.013Z,2.50
2023-01-19T01:01:53.155Z,2.60
2023-01-19T01:04:20.456Z,2.60
2023-01-19T01:06:47.335Z,2.50
2023-01-19T01:09:14.265Z,2.50
2023-01-19T01:11:43.000Z,2.50
2023-01-19T01:14:11.229Z,2.50
2023-01-19T01:16:38.494Z,2.60
2023-01-19T01:19:05.488Z,2.50
2023-01-19T01:21:34.705Z,2.50
2023-01-19T01:24:02.181Z,2.50
2023-01-19T01:26:29.205Z,2.40
2023-01-19T01:28:56.147Z,2.30
2023-01-19T01:31:23.042Z,2.30
2023-01-19T01:33:50.052Z,2.30
2023-01-19T01:36:19.004Z,2.30
2023-01-19T01:38:45.802Z,2.50
2023-01-19T01:41:12.991Z,2.30
2023-01-19T01:43:56.568Z,2.30
2023-01-19T01:46:23.298Z,2.20
2023-01-19T01:49:00.612Z,2.20
2023-01-19T01:51:34.812Z,2.20
2023-01-19T01:54:07.951Z,2.20
2023-01-19T01:56:41.585Z,2.10
2023-01-19T01:59:18.035Z,2.20
2023-01-19T02:02:03.536Z,2.20
2023-01-19T02:04:32.135Z,2.30
2023-01-19T02:07:17.550Z,2.20
2023-01-19T02:10:03.021Z,2.30
2023-01-19T02:12:48.329Z,2.20
2023-01-19T02:15:20.271Z,2.20
2023-01-19T02:17:47.476Z,2.30
2023-01-19T02:20:14.753Z,2.20
2023-01-19T02:22:50.860Z,2.20
2023-01-19T02:25:20.083Z,2.30
2023-01-19T02:27:47.490Z,2.20
2023-01-19T02:30:16.785Z,2.20
2023-01-19T02:32:44.103Z,2.30
2023-01-19T02:35:12.513Z,2.30
2023-01-19T02:37:41.476Z,2.30
2023-01-19T02:40:14.296Z,2.30
2023-01-19T02:42:49.808Z,2.30
2023-01-19T02:45:20.855Z,2.50
2023-01-19T02:47:52.775Z,2.30
2023-01-19T02:50:43.034Z,2.30
2023-01-19T02:53:36.043Z,2.40
2023-01-19T02:56:14.441Z,2.40
2023-01-19T02:59:10.158Z,2.30
2023-01-19T03:02:10.733Z,2.40
2023-01-19T03:05:08.767Z,2.40
2023-01-19T03:08:04.044Z,2.40
2023-01-19T03:10:34.424Z,2.40
2023-01-19T03:13:06.684Z,2.40
2023-01-19T03:15:38.928Z,2.40
2023-01-19T03:18:10.012Z,2.30
2023-01-19T03:20:37.872Z,2.30
2023-01-19T03:23:10.120Z,2.40
2023-01-19T03:25:41.082Z,2.40
2023-01-19T03:28:08.193Z,2.60
2023-01-19T03:30:46.686Z,2.60
2023-01-19T03:33:28.010Z,2.60
2023-01-19T03:36:03.606Z,2.50
2023-01-19T03:38:35.279Z,2.50
2023-01-19T03:41:07.047Z,2.40
2023-01-19T03:43:36.168Z,3.00
2023-01-19T03:46:05.468Z,2.40
2023-01-19T03:48:33.496Z,2.40
2023-01-19T03:51:09.450Z,2.40
2023-01-19T03:53:36.517Z,2.40
2023-01-19T03:56:03.818Z,2.40
2023-01-19T03:58:30.620Z,2.40
2023-01-19T04:00:57.619Z,2.40
2023-01-19T04:03:24.501Z,2.50
2023-01-19T04:05:51.822Z,2.50
2023-01-19T04:08:19.309Z,2.40
2023-01-19T04:10:46.101Z,2.60
2023-01-19T04:13:12.885Z,2.50
2023-01-19T04:15:39.936Z,2.40
2023-01-19T04:18:07.160Z,2.40
2023-01-19T04:20:34.129Z,2.40
2023-01-19T04:23:02.187Z,2.40
2023-01-19T04:25:29.430Z,2.40
2023-01-19T04:27:58.360Z,2.40
2023-01-19T04:30:25.909Z,2.40
2023-01-19T04:32:53.602Z,2.40
2023-01-19T04:35:22.105Z,2.30
2023-01-19T04:37:48.900Z,2.40
2023-01-19T04:40:15.860Z,2.40
2023-01-19T04:42:46.300Z,2.40
2023-01-19T04:45:14.309Z,2.30
2023-01-19T04:47:42.729Z,2.40
2023-01-19T04:50:11.483Z,2.60
2023-01-19T04:52:38.501Z,2.30
2023-01-19T04:55:06.689Z,2.30
2023-01-19T04:57:33.595Z,2.30
2023-01-19T05:00:00.445Z,2.50
2023-01-19T05:02:27.631Z,2.20
2023-01-19T05:04:54.588Z,2.30
2023-01-19T05:07:21.365Z,2.30
2023-01-19T05:09:48.336Z,2.50
2023-01-19T05:12:15.524Z,2.30
2023-01-19T05:14:43.267Z,1.90
2023-01-19T05:17:10.569Z,2.40
2023-01-19T05:19:37.374Z,2.30
2023-01-19T05:22:05.148Z,2.30
2023-01-19T05:24:32.802Z,2.30
2023-01-19T05:26:59.880Z,2.30
2023-01-19T05:29:26.715Z,2.20
2023-01-19T05:31:53.617Z,2.30
2023-01-19T05:34:20.441Z,2.20
2023-01-19T05:36:47.345Z,2.20
2023-01-19T05:39:14.278Z,2.20
2023-01-19T05:41:42.128Z,2.20
2023-01-19T05:44:10.293Z,2.30
2023-01-19T05:46:38.164Z,2.40
2023-01-19T05:49:05.164Z,2.30
2023-01-19T05:51:35.217Z,2.30
2023-01-19T05:54:02.538Z,2.30
2023-01-19T05:56:29.421Z,2.40
2023-01-19T05:58:56.410Z,2.40
2023-01-19T06:01:23.491Z,2.40
2023-01-19T06:03:50.377Z,2.40
2023-01-19T06:06:17.857Z,2.40
2023-01-19T06:08:45.529Z,2.50
2023-01-19T06:11:12.690Z,2.40
2023-01-19T06:13:41.974Z,2.40
2023-01-19T06:16:09.584Z,2.40
2023-01-19T06:18:36.525Z,2.40
2023-01-19T06:21:08.409Z,2.50
2023-01-19T06:23:36.918Z,2.40
2023-01-19T06:26:03.867Z,2.40
2023-01-19T06:28:31.225Z,2.40
2023-01-19T06:30:58.283Z,2.20
2023-01-19T06:33:26.314Z,2.30
2023-01-19T06:35:53.182Z,2.30
2023-01-19T06:38:20.219Z,2.30
2023-01-19T06:40:54.007Z,2.30
2023-01-19T06:43:21.439Z,2.30
2023-01-19T06:45:48.782Z,2.20
2023-01-19T06:48:16.479Z,2.20
2023-01-19T06:50:45.954Z,2.20
2023-01-19T06:53:13.172Z,2.20
2023-01-19T06:55:39.943Z,2.20
2023-01-19T06:58:07.403Z,2.20
2023-01-19T07:00:34.258Z,2.20
2023-01-19T07:03:01.557Z,2.20
2023-01-19T07:05:28.701Z,2.20
2023-01-19T07:07:56.915Z,2.40
2023-01-19T07:10:24.896Z,2.20
2023-01-19T07:12:51.776Z,2.30
2023-01-19T07:15:22.598Z,2.30
2023-01-19T07:17:49.822Z,2.30
2023-01-19T07:20:17.618Z,2.30
2023-01-19T07:22:46.598Z,2.30
2023-01-19T07:25:14.220Z,2.40
2023-01-19T07:27:41.155Z,2.40
2023-01-19T07:30:08.978Z,2.40
2023-01-19T07:32:36.140Z,2.40
2023-01-19T07:35:03.281Z,2.50
2023-01-19T07:37:30.189Z,2.40
2023-01-19T07:39:57.066Z,2.50
2023-01-19T07:42:23.907Z,2.50
2023-01-19T07:44:50.811Z,2.50
2023-01-19T07:47:17.693Z,2.60
2023-01-19T07:49:44.529Z,2.60
2023-01-19T07:52:11.420Z,2.50
2023-01-19T07:54:38.575Z,2.70
2023-01-19T07:57:05.557Z,2.50
2023-01-19T07:59:32.459Z,2.50
2023-01-19T08:01:59.922Z,2.50
2023-01-19T08:04:27.663Z,2.60
2023-01-19T08:06:56.732Z,2.70
2023-01-19T08:09:24.398Z,2.80
2023-01-19T08:11:51.590Z,2.80
2023-01-19T08:14:18.457Z,2.80
2023-01-19T08:16:45.256Z,2.80
2023-01-19T08:19:12.280Z,2.90
2023-01-19T08:21:39.168Z,2.90
2023-01-19T08:24:06.503Z,2.90
2023-01-19T08:26:35.536Z,3.00
2023-01-19T08:29:06.114Z,3.00
2023-01-19T08:31:33.299Z,3.00
2023-01-19T08:34:00.247Z,3.00
2023-01-19T08:36:27.290Z,3.10
2023-01-19T08:38:54.277Z,3.10
2023-01-19T08:41:22.317Z,3.10
2023-01-19T08:43:49.861Z,3.00
2023-01-19T08:46:17.642Z,3.20
2023-01-19T08:48:51.090Z,3.00
2023-01-19T08:51:18.048Z,3.00
2023-01-19T08:53:45.283Z,3.10
2023-01-19T08:56:12.551Z,2.90
2023-01-19T08:58:40.887Z,2.90
2023-01-19T09:01:08.977Z,2.90
2023-01-19T09:03:36.756Z,2.90
2023-01-19T09:06:07.695Z,3.40
2023-01-19T09:08:34.550Z,2.90
2023-01-19T09:11:01.717Z,2.90
2023-01-19T09:13:28.769Z,2.90
2023-01-19T09:15:55.889Z,3.00
2023-01-19T09:18:23.216Z,3.00
2023-01-19T09:20:51.056Z,3.10
2023-01-19T09:23:20.382Z,3.10
2023-01-19T09:25:48.622Z,3.10
2023-01-19T09:28:17.617Z,3.20
2023-01-19T09:30:44.879Z,3.20
2023-01-19T09:33:14.767Z,3.30
2023-01-19T09:35:42.870Z,3.40
2023-01-19T09:38:10.907Z,3.40
2023-01-19T09:40:49.574Z,3.50
2023-01-19T09:43:50.736Z,3.50
2023-01-19T09:46:47.100Z,3.50
2023-01-19T09:49:21.563Z,3.60
2023-01-19T09:51:51.191Z,3.60
2023-01-19T09:54:35.843Z,3.60
2023-01-19T09:57:02.903Z,3.60
2023-01-19T09:59:32.309Z,3.60
2023-01-19T10:02:34.102Z,3.60
2023-01-19T10:05:20.465Z,3.50
2023-01-19T10:07:58.319Z,3.50
2023-01-19T10:10:28.548Z,3.70
2023-01-19T10:13:25.537Z,3.50
2023-01-19T10:16:21.224Z,3.50
2023-01-19T10:18:51.733Z,3.50
2023-01-19T10:21:33.480Z,3.50
2023-01-19T10:24:16.433Z,3.50
2023-01-19T10:26:49.677Z,3.50
2023-01-19T10:29:16.635Z,3.50
2023-01-19T10:31:49.240Z,3.50
2023-01-19T10:34:20.976Z,3.50
2023-01-19T10:36:55.350Z,3.50
2023-01-19T10:39:22.405Z,3.60
2023-01-19T10:41:53.980Z,3.70
2023-01-19T10:44:26.301Z,3.50
2023-01-19T10:46:55.957Z,3.70
2023-01-19T10:49:33.075Z,3.50
2023-01-19T10:52:00.486Z,3.60
2023-01-19T10:54:29.699Z,3.70
2023-01-19T10:57:10.135Z,3.90
2023-01-19T10:59:43.935Z,3.80
2023-01-19T11:02:14.005Z,3.90
2023-01-19T11:04:42.181Z,3.90
2023-01-19T11:07:23.058Z,4.00
2023-01-19T11:10:10.466Z,4.00
2023-01-19T11:12:53.375Z,4.10
2023-01-19T11:15:26.306Z,4.10
2023-01-19T11:17:53.654Z,4.20
2023-01-19T11:20:30.571Z,4.20
2023-01-19T11:23:14.392Z,4.30
2023-01-19T11:25:45.284Z,4.30
2023-01-19T11:28:26.603Z,4.30
2023-01-19T11:31:02.000Z,4.30
2023-01-19T11:33:36.495Z,4.30
2023-01-19T11:36:24.080Z,4.40
2023-01-19T11:38:56.963Z,4.40
2023-01-19T11:41:31.473Z,4.50
2023-01-19T11:44:09.734Z,4.50
2023-01-19T11:46:41.253Z,4.60
2023-01-19T11:49:38.165Z,4.60
2023-01-19T11:52:18.925Z,4.60
2023-01-19T11:55:17.579Z,4.60
2023-01-19T11:57:50.701Z,4.70
2023-01-19T12:00:23.051Z,4.70
2023-01-19T12:02:55.488Z,4.70
2023-01-19T12:05:32.938Z,4.70
2023-01-19T12:08:07.027Z,4.90
2023-01-19T12:10:41.614Z,4.60
2023-01-19T12:13:23.886Z,4.70
2023-01-19T12:15:58.010Z,4.70
2023-01-19T12:18:30.249Z,4.70
2023-01-19T12:20:59.124Z,4.70
2023-01-19T12:23:58.590Z,4.60
2023-01-19T12:26:35.249Z,4.50
2023-01-19T12:29:15.256Z,4.70
2023-01-19T12:31:45.283Z,4.50
2023-01-19T12:34:31.265Z,4.60
2023-01-19T12:37:06.545Z,4.70
2023-01-19T12:39:35.387Z,4.70
2023-01-19T12:42:07.050Z,5.10
2023-01-19T12:44:34.878Z,4.70
2023-01-19T12:47:20.309Z,5.00
2023-01-19T12:49:50.370Z,4.80
2023-01-19T12:52:21.961Z,4.80
2023-01-19T12:55:15.248Z,4.80
2023-01-19T12:57:55.467Z,4.80
2023-01-19T13:00:22.454Z,4.80
2023-01-19T13:02:54.746Z,4.80
2023-01-19T13:05:32.656Z,4.80
2023-01-19T13:08:03.267Z,4.80
2023-01-19T13:11:02.686Z,4.80
2023-01-19T13:13:38.058Z,4.80
2023-01-19T13:16:20.287Z,4.80
2023-01-19T13:18:50.626Z,4.80
2023-01-19T13:21:42.416Z,4.80
2023-01-19T13:24:17.175Z,4.70
2023-01-19T13:27:03.501Z,4.70
2023-01-19T13:29:34.501Z,4.70
2023-01-19T13:32:13.404Z,4.60
2023-01-19T13:34:44.222Z,4.60
2023-01-19T13:37:37.189Z,4.60
2023-01-19T13:40:04.921Z,4.60
2023-01-19T13:42:38.848Z,4.60
2023-01-19T13:45:29.243Z,4.60
2023-01-19T13:47:59.504Z,4.60
2023-01-19T13:50:32.118Z,4.70
2023-01-19T13:52:59.471Z,4.60
2023-01-19T13:55:28.492Z,4.60
2023-01-19T13:57:55.611Z,4.50
2023-01-19T14:00:28.007Z,4.50
2023-01-19T14:02:58.782Z,4.50
2023-01-19T14:05:37.764Z,4.40
2023-01-19T14:08:13.563Z,4.50
2023-01-19T14:11:02.166Z,4.40
2023-01-19T14:13:32.404Z,4.50
2023-01-19T14:16:15.221Z,4.50
2023-01-19T14:18:42.420Z,4.50
2023-01-19T14:21:14.458Z,4.50
2023-01-19T14:23:57.865Z,4.50
2023-01-19T14:26:46.701Z,4.50
2023-01-19T14:29:37.900Z,4.40
2023-01-19T14:32:10.130Z,4.40
2023-01-19T14:34:45.872Z,4.40
2023-01-19T14:37:29.128Z,4.40
2023-01-19T14:40:04.702Z,4.30
2023-01-19T14:42:36.119Z,4.30
2023-01-19T14:45:07.841Z,4.30
2023-01-19T14:47:41.117Z,4.20
2023-01-19T14:50:28.232Z,4.20
2023-01-19T14:52:56.813Z,4.10
2023-01-19T14:55:54.525Z,4.10
2023-01-19T14:58:24.720Z,4.00
2023-01-19T15:00:55.698Z,4.10
2023-01-19T15:03:34.895Z,4.00
2023-01-19T15:06:18.824Z,4.00
2023-01-19T15:08:46.033Z,4.00
2023-01-19T15:11:21.941Z,3.90
2023-01-19T15:13:49.570Z,4.00
2023-01-19T15:16:16.742Z,3.90
2023-01-19T15:18:43.688Z,4.00
2023-01-19T15:21:15.376Z,3.90
2023-01-19T15:23:42.561Z,3.90
2023-01-19T15:26:15.499Z,3.80
2023-01-19T15:28:42.657Z,3.80
2023-01-19T15:31:15.791Z,3.70
2023-01-19T15:33:42.997Z,3.70
2023-01-19T15:36:18.689Z,3.60
2023-01-19T15:38:46.484Z,3.60
2023-01-19T15:41:27.524Z,3.60
2023-01-19T15:43:54.562Z,3.60
2023-01-19T15:46:23.108Z,3.60
2023-01-19T15:48:50.707Z,3.60
2023-01-19T15:51:20.499Z,3.70
2023-01-19T15:53:48.767Z,3.50
2023-01-19T15:56:34.479Z,3.50
2023-01-19T15:59:01.920Z,3.50
2023-01-19T16:01:33.807Z,3.50
2023-01-19T16:04:03.567Z,3.50
2023-01-19T16:06:32.003Z,3.50
2023-01-19T16:09:01.100Z,3.60
2023-01-19T16:11:30.866Z,3.60
2023-01-19T16:13:58.008Z,3.50
2023-01-19T16:16:26.081Z,3.50
2023-01-19T16:18:52.966Z,3.50
2023-01-19T16:21:19.827Z,3.50
2023-01-19T16:23:46.670Z,3.40
2023-01-19T16:26:34.988Z,3.50
2023-01-19T16:29:13.522Z,3.40
2023-01-19T16:31:42.070Z,3.40
2023-01-19T16:34:09.940Z,3.40
2023-01-19T16:36:40.282Z,3.40
2023-01-19T16:39:14.937Z,3.40
2023-01-19T16:41:42.320Z,3.40
2023-01-19T16:44:13.878Z,3.40
2023-01-19T16:46:43.180Z,3.30
2023-01-19T16:49:16.216Z,3.30
2023-01-19T16:51:43.487Z,3.40
2023-01-19T16:54:19.804Z,3.20
2023-01-19T16:56:46.832Z,3.20
2023-01-19T16:59:15.604Z,3.10
2023-01-19T17:01:44.415Z,3.00
2023-01-19T17:04:14.513Z,3.00
2023-01-19T17:06:41.377Z,3.20
2023-01-19T17:09:09.440Z,3.00
2023-01-19T17:11:36.298Z,2.90
2023-01-19T17:14:09.010Z,2.90
2023-01-19T17:16:36.450Z,2.90
2023-01-19T17:19:05.402Z,3.20
2023-01-19T17:21:32.891Z,2.90
2023-01-19T17:24:00.063Z,2.90
2023-01-19T17:26:28.709Z,2.90
2023-01-19T17:29:03.146Z,2.90
2023-01-19T17:31:30.724Z,2.90
2023-01-19T17:33:58.614Z,2.90
2023-01-19T17:36:27.601Z,2.80
2023-01-19T17:38:56.644Z,2.90
2023-01-19T17:41:29.447Z,2.80
2023-01-19T17:43:57.591Z,2.90
2023-01-19T17:46:26.701Z,2.70
2023-01-19T17:49:03.668Z,2.60
2023-01-19T17:51:31.279Z,2.70
2023-01-19T17:53:58.916Z,2.70
2023-01-19T17:56:29.901Z,2.80
2023-01-19T17:58:57.772Z,2.50
2023-01-19T18:01:27.376Z,3.10
2023-01-19T18:03:54.718Z,2.40
2023-01-19T18:06:22.187Z,2.40
2023-01-19T18:08:50.282Z,2.40
2023-01-19T18:11:19.813Z,2.40
2023-01-19T18:13:48.526Z,2.40
2023-01-19T18:16:18.252Z,2.40
2023-01-19T18:18:45.172Z,2.40
2023-01-19T18:21:14.101Z,2.20
2023-01-19T18:23:43.480Z,2.20
2023-01-19T18:26:22.006Z,2.20
2023-01-19T18:28:50.202Z,2.20
2023-01-19T18:31:18.960Z,2.20
2023-01-19T18:33:48.487Z,2.40
2023-01-19T18:36:16.211Z,2.10
2023-01-19T18:38:43.614Z,2.10
2023-01-19T18:41:13.297Z,2.10
2023-01-19T18:43:40.275Z,2.00
2023-01-19T18:46:07.704Z,2.00
2023-01-19T18:48:34.800Z,1.90
2023-01-19T18:51:09.642Z,1.90
2023-01-19T18:53:36.583Z,1.80
2023-01-19T18:56:03.915Z,1.80
2023-01-19T18:58:32.643Z,1.80
2023-01-19T19:01:01.311Z,1.80
2023-01-19T19:03:28.954Z,1.80
2023-01-19T19:05:56.071Z,1.90
2023-01-19T19:08:22.996Z,1.80
2023-01-19T19:10:49.871Z,1.90
2023-01-19T19:13:17.714Z,1.80
2023-01-19T19:15:44.677Z,1.80
2023-01-19T19:18:13.834Z,1.80
2023-01-19T19:20:43.248Z,1.70
2023-01-19T19:23:11.341Z,1.70
2023-01-19T19:25:38.559Z,1.70
2023-01-19T19:28:05.632Z,1.70
2023-01-19T19:30:34.535Z,1.70
2023-01-19T19:33:01.741Z,1.60
2023-01-19T19:35:28.868Z,1.60
2023-01-19T19:37:57.831Z,1.70
2023-01-19T19:40:28.391Z,1.60
2023-01-19T19:42:58.329Z,1.60
2023-01-19T19:45:25.720Z,1.60
2023-01-19T19:47:52.614Z,1.50
2023-01-19T19:50:19.532Z,1.70
2023-01-19T19:52:46.482Z,1.50
2023-01-19T19:55:13.373Z,1.40
2023-01-19T19:57:40.289Z,1.40
2023-01-19T20:00:08.073Z,1.40
2023-01-19T20:02:34.962Z,1.30
2023-01-19T20:05:01.808Z,1.30
2023-01-19T20:07:28.820Z,1.30
2023-01-19T20:09:55.759Z,1.20
2023-01-19T20:12:22.613Z,1.50
2023-01-19T20:14:49.580Z,1.20
2023-01-19T20:17:16.593Z,1.40
2023-01-19T20:19:45.585Z,1.20
2023-01-19T20:22:12.860Z,1.20
2023-01-19T20:24:39.872Z,1.20
2023-01-19T20:27:06.720Z,1.20
2023-01-19T20:29:33.622Z,1.20
2023-01-19T20:32:00.470Z,1.10
2023-01-19T20:34:32.942Z,1.10
2023-01-19T20:37:01.643Z,1.10
2023-01-19T20:39:30.096Z,1.10
2023-01-19T20:41:57.026Z,1.00
2023-01-19T20:44:25.918Z,1.00
2023-01-19T20:46:54.153Z,1.00
2023-01-19T20:49:21.628Z,1.00
2023-01-19T20:51:48.689Z,0.90
2023-01-19T20:54:18.275Z,1.00
2023-01-19T20:56:45.365Z,1.00
2023-01-19T20:59:12.757Z,1.00
2023-01-19T21:01:40.917Z,1.00
2023-01-19T21:04:08.454Z,1.00
2023-01-19T21:06:35.878Z,1.00
2023-01-19T21:09:03.660Z,1.20
2023-01-19T21:11:31.063Z,1.30
2023-01-19T21:13:58.035Z,1.00
2023-01-19T21:16:27.566Z,0.90
2023-01-19T21:18:54.667Z,1.00
2023-01-19T21:21:30.376Z,1.00
2023-01-19T21:24:02.381Z,1.00
2023-01-19T21:26:30.348Z,1.00
2023-01-19T21:29:01.552Z,1.00
2023-01-19T21:31:29.296Z,1.00
2023-01-19T21:33:57.805Z,1.00
2023-01-19T21:36:24.942Z,1.00
2023-01-19T21:38:52.389Z,1.00
2023-01-19T21:41:19.778Z,1.00
2023-01-19T21:43:46.950Z,1.00
2023-01-19T21:46:21.920Z,0.90
2023-01-19T21:48:48.931Z,0.90
2023-01-19T21:51:16.599Z,0.90
2023-01-19T21:53:43.555Z,0.90
2023-01-19T21:56:11.241Z,0.90
2023-01-19T21:58:38.396Z,0.90
2023-01-19T22:01:13.593Z,0.80
2023-01-19T22:03:41.465Z,0.80
2023-01-19T22:06:10.897Z,0.80
2023-01-19T22:08:38.379Z,0.80
2023-01-19T22:11:06.895Z,0.90
2023-01-19T22:13:34.652Z,0.80
2023-01-19T22:16:02.688Z,0.80
2023-01-19T22:18:29.756Z,0.70
2023-01-19T22:20:56.821Z,0.70
2023-01-19T22:23:23.707Z,0.70
2023-01-19T22:25:50.614Z,0.60
2023-01-19T22:28:17.407Z,0.60
2023-01-19T22:30:44.436Z,0.60
2023-01-19T22:33:11.464Z,0.60
2023-01-19T22:35:38.298Z,0.70
2023-01-19T22:38:05.165Z,0.50
2023-01-19T22:40:32.029Z,0.50
2023-01-19T22:42:58.846Z,0.50
2023-01-19T22:45:26.009Z,0.40
2023-01-19T22:47:52.826Z,0.50
2023-01-19T22:50:19.676Z,0.40
2023-01-19T22:52:46.460Z,0.40
2023-01-19T22:55:13.581Z,0.40
2023-01-19T22:57:40.520Z,0.40
2023-01-19T23:00:08.905Z,0.40
2023-01-19T23:02:36.112Z,0.40
2023-01-19T23:05:03.708Z,0.30
2023-01-19T23:07:30.559Z,0.30
2023-01-19T23:09:57.356Z,0.30
2023-01-19T23:12:24.201Z,0.30
2023-01-19T23:14:51.042Z,0.30
2023-01-19T23:17:18.024Z,0.20
2023-01-19T23:19:44.870Z,0.20
2023-01-19T23:22:11.885Z,0.20
2023-01-19T23:24:38.795Z,0.20
2023-01-19T23:27:05.685Z,0.20
2023-01-19T23:29:32.466Z,0.20
2023-01-19T23:31:59.417Z,0.20
2023-01-19T23:34:26.231Z,0.20
2023-01-19T23:36:52.992Z,0.20
2023-01-19T23:39:21.956Z,0.20
2023-01-19T23:41:49.633Z,0.10
2023-01-19T23:44:17.251Z,0.20
2023-01-19T23:46:44.641Z,0.20
2023-01-19T23:49:12.581Z,0.20
2023-01-19T23:51:40.806Z,0.30
2023-01-19T23:54:07.744Z,0.30
2023-01-19T23:56:37.555Z,0.40
2023-01-19T23:59:07.159Z,0.40
